createdAt,value
2022-12-18T00:00:06.772Z,96062.06
2022-12-18T00:03:01.037Z,96066.09
2022-12-18T00:05:28.916Z,96078.44
2022-12-18T00:07:56.098Z,96088.22
2022-12-18T00:10:23.696Z,96072.03
2022-12-18T00:12:51.318Z,96084.31
2022-12-18T00:15:18.925Z,96078.88
2022-12-18T00:17:46.050Z,96098.09
2022-12-18T00:20:15.836Z,96102.31
2022-12-18T00:22:42.983Z,96104.41
2022-12-18T00:25:10.593Z,96101.59
2022-12-18T00:27:37.793Z,96109.34
2022-12-18T00:30:06.032Z,96123.50
2022-12-18T00:32:33.943Z,96107.44
2022-12-18T00:35:03.265Z,96124.69
2022-12-18T00:37:31.963Z,96133.69
2022-12-18T00:39:59.478Z,96141.03
2022-12-18T00:42:45.114Z,96142.22
2022-12-18T00:45:13.375Z,96155.47
2022-12-18T00:47:40.991Z,96154.06
2022-12-18T00:50:09.402Z,96132.66
2022-12-18T00:52:36.682Z,96156.53
2022-12-18T00:55:06.597Z,96163.75
2022-12-18T00:57:34.007Z,96163.06
2022-12-18T01:00:01.741Z,96168.91
2022-12-18T01:02:29.429Z,96153.66
2022-12-18T01:04:57.008Z,96173.41
2022-12-18T01:07:24.189Z,96177.16
2022-12-18T01:09:51.774Z,96173.72
2022-12-18T01:12:19.346Z,96167.66
2022-12-18T01:14:46.977Z,96179.03
2022-12-18T01:17:15.686Z,96180.25
2022-12-18T01:19:43.270Z,96178.06
2022-12-18T01:22:11.148Z,96184.28
2022-12-18T01:24:39.115Z,96175.38
2022-12-18T01:27:06.432Z,96176.66
2022-12-18T01:29:34.494Z,96176.13
2022-12-18T01:32:01.764Z,96175.31
2022-12-18T01:34:31.155Z,96190.56
2022-12-18T01:36:58.362Z,96183.66
2022-12-18T01:39:25.946Z,96178.00
2022-12-18T01:42:05.319Z,96202.03
2022-12-18T01:45:03.826Z,96205.69
2022-12-18T01:47:48.672Z,96198.59
2022-12-18T01:50:31.112Z,96211.91
2022-12-18T01:53:03.557Z,96213.63
2022-12-18T01:55:36.183Z,96198.50
2022-12-18T01:58:04.724Z,96208.69
2022-12-18T02:00:32.316Z,96208.44
2022-12-18T02:02:59.618Z,96214.00
2022-12-18T02:06:06.708Z,96220.00
2022-12-18T02:08:37.792Z,96209.88
2022-12-18T02:11:05.548Z,96228.91
2022-12-18T02:13:48.415Z,96234.19
2022-12-18T02:16:31.889Z,96227.88
2022-12-18T02:19:17.244Z,96238.25
2022-12-18T02:22:09.824Z,96240.34
2022-12-18T02:25:06.095Z,96239.47
2022-12-18T02:27:36.459Z,96241.59
2022-12-18T02:30:06.205Z,96255.00
2022-12-18T02:32:41.386Z,96256.06
2022-12-18T02:35:14.987Z,96260.63
2022-12-18T02:37:46.380Z,96261.66
2022-12-18T02:40:16.495Z,96265.00
2022-12-18T02:42:44.226Z,96278.66
2022-12-18T02:45:14.428Z,96272.59
2022-12-18T02:47:47.114Z,96263.19
2022-12-18T02:50:52.711Z,96271.00
2022-12-18T02:53:33.532Z,96267.72
2022-12-18T02:56:17.923Z,96269.66
2022-12-18T02:59:07.468Z,96270.19
2022-12-18T03:02:27.605Z,96281.56
2022-12-18T03:05:07.363Z,96279.75
2022-12-18T03:07:41.032Z,96286.59
2022-12-18T03:10:17.277Z,96267.63
2022-12-18T03:13:03.072Z,96299.28
2022-12-18T03:15:46.739Z,96295.16
2022-12-18T03:18:21.184Z,96300.38
2022-12-18T03:20:52.684Z,96303.72
2022-12-18T03:23:30.187Z,96298.47
2022-12-18T03:26:07.466Z,96298.38
2022-12-18T03:28:43.382Z,96313.38
2022-12-18T03:31:14.246Z,96310.75
2022-12-18T03:33:53.718Z,96316.91
2022-12-18T03:36:25.030Z,96308.16
2022-12-18T03:38:52.933Z,96317.81
2022-12-18T03:41:25.172Z,96324.41
2022-12-18T03:44:27.729Z,96315.59
2022-12-18T03:47:02.070Z,96324.66
2022-12-18T03:49:51.753Z,96326.47
2022-12-18T03:52:37.404Z,96329.22
2022-12-18T03:55:08.252Z,96311.38
2022-12-18T03:57:37.086Z,96328.03
2022-12-18T04:00:13.140Z,96334.06
2022-12-18T04:02:58.141Z,96335.59
2022-12-18T04:05:36.116Z,96340.13
2022-12-18T04:08:04.332Z,96339.06
2022-12-18T04:10:38.663Z,96342.06
2022-12-18T04:13:06.249Z,96343.47
2022-12-18T04:15:36.403Z,96331.88
2022-12-18T04:18:05.560Z,96357.38
2022-12-18T04:20:40.071Z,96343.47
2022-12-18T04:23:09.440Z,96362.63
2022-12-18T04:25:37.854Z,96360.16
2022-12-18T04:28:09.081Z,96373.25
2022-12-18T04:30:38.521Z,96365.13
2022-12-18T04:33:14.179Z,96379.00
2022-12-18T04:35:42.264Z,96371.19
2022-12-18T04:38:11.091Z,96376.41
2022-12-18T04:40:39.522Z,96374.75
2022-12-18T04:43:15.467Z,96378.47
2022-12-18T04:45:42.712Z,96375.72
2022-12-18T04:48:10.353Z,96382.59
2022-12-18T04:50:38.034Z,96376.28
2022-12-18T04:53:05.669Z,96372.69
2022-12-18T04:55:32.876Z,96399.56
2022-12-18T04:58:00.475Z,96395.94
2022-12-18T05:00:27.759Z,96384.41
2022-12-18T05:02:55.893Z,96386.19
2022-12-18T05:05:23.312Z,96403.00
2022-12-18T05:07:50.819Z,96387.28
2022-12-18T05:10:18.114Z,96405.06
2022-12-18T05:13:00.063Z,96405.47
2022-12-18T05:15:30.567Z,96414.28
2022-12-18T05:17:59.719Z,96413.03
2022-12-18T05:20:28.460Z,96418.94
2022-12-18T05:22:57.008Z,96420.47
2022-12-18T05:25:24.508Z,96422.53
2022-12-18T05:27:52.044Z,96426.94
2022-12-18T05:30:19.201Z,96424.88
2022-12-18T05:32:48.915Z,96418.69
2022-12-18T05:35:16.193Z,96419.25
2022-12-18T05:37:43.805Z,96418.41
2022-12-18T05:40:12.067Z,96418.81
2022-12-18T05:42:40.137Z,96432.75
2022-12-18T05:45:07.875Z,96431.91
2022-12-18T05:47:35.406Z,96440.72
2022-12-18T05:50:02.701Z,96448.72
2022-12-18T05:52:31.448Z,96443.88
2022-12-18T05:55:00.141Z,96452.56
2022-12-18T05:57:27.719Z,96449.78
2022-12-18T05:59:54.985Z,96421.16
2022-12-18T06:02:22.678Z,96461.50
2022-12-18T06:04:50.036Z,96452.53
2022-12-18T06:07:17.492Z,96469.34
2022-12-18T06:09:44.855Z,96467.69
2022-12-18T06:12:12.384Z,96473.78
2022-12-18T06:14:40.084Z,96471.69
2022-12-18T06:17:07.940Z,96477.19
2022-12-18T06:19:35.186Z,96476.38
2022-12-18T06:22:02.698Z,96488.78
2022-12-18T06:24:30.783Z,96478.03
2022-12-18T06:26:58.357Z,96487.25
2022-12-18T06:29:25.620Z,96482.84
2022-12-18T06:31:53.230Z,96501.84
2022-12-18T06:34:20.506Z,96494.94
2022-12-18T06:36:47.970Z,96481.72
2022-12-18T06:39:15.273Z,96510.94
2022-12-18T06:41:42.752Z,96509.81
2022-12-18T06:44:09.936Z,96505.94
2022-12-18T06:46:39.160Z,96512.81
2022-12-18T06:49:06.408Z,96520.25
2022-12-18T06:51:33.926Z,96521.91
2022-12-18T06:54:01.323Z,96528.53
2022-12-18T06:56:29.275Z,96509.25
2022-12-18T06:58:56.467Z,96515.72
2022-12-18T07:01:24.182Z,96530.41
2022-12-18T07:03:56.274Z,96536.38
2022-12-18T07:06:26.249Z,96541.69
2022-12-18T07:08:55.196Z,96540.47
2022-12-18T07:11:23.188Z,96531.16
2022-12-18T07:13:50.500Z,96553.53
2022-12-18T07:16:24.632Z,96548.88
2022-12-18T07:18:53.698Z,96558.31
2022-12-18T07:21:21.739Z,96568.72
2022-12-18T07:23:49.389Z,96572.22
2022-12-18T07:26:19.792Z,96554.00
2022-12-18T07:28:47.430Z,96581.97
2022-12-18T07:31:21.470Z,96589.34
2022-12-18T07:33:49.802Z,96585.22
2022-12-18T07:36:17.650Z,96595.78
2022-12-18T07:38:48.316Z,62409.59
2022-12-18T07:41:16.363Z,62409.59
2022-12-18T07:43:43.941Z,62409.59
2022-12-18T07:46:14.967Z,62409.59
2022-12-18T07:48:46.286Z,62409.59
2022-12-18T07:51:18.855Z,62409.59
2022-12-18T07:53:46.327Z,62409.59
2022-12-18T07:56:31.785Z,62409.59
2022-12-18T07:59:00.421Z,62409.59
2022-12-18T08:01:31.205Z,62409.59
2022-12-18T08:03:59.127Z,62409.59
2022-12-18T08:06:27.191Z,62409.59
2022-12-18T08:08:55.879Z,62409.59
2022-12-18T08:11:25.930Z,62409.59
2022-12-18T08:13:54.063Z,62409.59
2022-12-18T08:16:23.082Z,62409.59
2022-12-18T08:18:50.583Z,62409.59
2022-12-18T08:21:23.073Z,62409.59
2022-12-18T08:23:52.053Z,62409.59
2022-12-18T08:26:21.061Z,62409.59
2022-12-18T08:28:51.012Z,62409.59
2022-12-18T08:31:20.307Z,62409.59
2022-12-18T08:33:51.431Z,62409.59
2022-12-18T08:36:20.289Z,62409.59
2022-12-18T08:38:47.954Z,62409.59
2022-12-18T08:41:17.925Z,62409.59
2022-12-18T08:44:04.399Z,62409.59
2022-12-18T08:46:41.128Z,62409.59
2022-12-18T08:49:09.794Z,62409.59
2022-12-18T08:51:37.647Z,62409.59
2022-12-18T08:54:06.490Z,62409.59
2022-12-18T08:56:35.309Z,62409.59
2022-12-18T08:59:03.431Z,62409.59
2022-12-18T09:01:31.321Z,62409.59
2022-12-18T09:03:59.314Z,62409.59
2022-12-18T09:06:27.765Z,62409.59
2022-12-18T09:08:55.123Z,62409.59
2022-12-18T09:11:27.222Z,62409.59
2022-12-18T09:13:55.914Z,62409.59
2022-12-18T09:16:30.325Z,62409.59
2022-12-18T09:19:00.945Z,62409.59
2022-12-18T09:21:31.206Z,62409.59
2022-12-18T09:24:00.256Z,62409.59
2022-12-18T09:26:28.430Z,62409.59
2022-12-18T09:28:56.863Z,62409.59
2022-12-18T09:31:25.869Z,62409.59
2022-12-18T09:33:53.309Z,62409.59
2022-12-18T09:36:21.028Z,62409.59
2022-12-18T09:38:49.154Z,62409.59
2022-12-18T09:41:38.622Z,62409.59
2022-12-18T09:44:47.597Z,62409.59
2022-12-18T09:47:24.942Z,62409.59
2022-12-18T09:49:56.282Z,62409.59
2022-12-18T09:52:48.372Z,62409.59
2022-12-18T09:55:39.308Z,62409.59
2022-12-18T09:58:31.964Z,62409.59
2022-12-18T10:00:59.906Z,62409.59
2022-12-18T10:03:27.952Z,62409.59
2022-12-18T10:06:14.849Z,62409.59
2022-12-18T10:09:04.157Z,62409.59
2022-12-18T10:11:41.252Z,62409.59
2022-12-18T10:14:08.922Z,62409.59
2022-12-18T10:16:53.172Z,62409.59
2022-12-18T10:19:36.340Z,62409.59
2022-12-18T10:22:12.266Z,62409.59
2022-12-18T10:24:57.944Z,62409.59
2022-12-18T10:27:28.594Z,62409.59
2022-12-18T10:29:57.019Z,62409.59
2022-12-18T10:32:27.564Z,62409.59
2022-12-18T10:35:01.232Z,62409.59
2022-12-18T10:37:38.871Z,62409.59
2022-12-18T10:40:16.849Z,62409.59
2022-12-18T10:42:47.470Z,62409.59
2022-12-18T10:45:18.693Z,62409.59
2022-12-18T10:47:50.991Z,62409.59
2022-12-18T10:51:08.652Z,62409.59
2022-12-18T10:53:28.922Z,62409.59
2022-12-18T10:56:03.396Z,62409.59
2022-12-18T10:58:38.439Z,62409.59
2022-12-18T11:01:17.643Z,62409.59
2022-12-18T11:04:02.628Z,62409.59
2022-12-18T11:06:33.791Z,62409.59
2022-12-18T11:09:12.272Z,62409.59
2022-12-18T11:11:42.222Z,62409.59
2022-12-18T11:14:22.333Z,62409.59
2022-12-18T11:19:42.548Z,62409.59
2022-12-18T11:22:31.940Z,62409.59
2022-12-18T11:25:32.194Z,62409.59
2022-12-18T11:28:28.821Z,62409.59
2022-12-18T11:31:15.026Z,62409.59
2022-12-18T11:34:04.838Z,62409.59
2022-12-18T11:36:39.417Z,62409.59
2022-12-18T11:39:18.391Z,62409.59
2022-12-18T11:42:10.823Z,62409.59
2022-12-18T11:44:50.345Z,62409.59
2022-12-18T11:47:32.022Z,62409.59
2022-12-18T11:50:02.731Z,62409.59
2022-12-18T11:52:39.377Z,62409.59
2022-12-18T11:55:31.545Z,62409.59
2022-12-18T11:58:10.746Z,62409.59
2022-12-18T12:00:50.165Z,62409.59
2022-12-18T12:03:37.826Z,62409.59
2022-12-18T12:06:48.486Z,62409.59
2022-12-18T12:09:42.291Z,62409.59
2022-12-18T12:12:29.476Z,62409.59
2022-12-18T12:15:04.741Z,62409.59
2022-12-18T12:17:42.288Z,62409.59
2022-12-18T12:20:38.008Z,62409.59
2022-12-18T12:23:27.479Z,62409.59
2022-12-18T12:26:18.105Z,62409.59
2022-12-18T12:28:45.794Z,62409.59
2022-12-18T12:31:28.440Z,62409.59
2022-12-18T12:34:24.891Z,62409.59
2022-12-18T12:37:12.905Z,62409.59
2022-12-18T12:39:43.692Z,62409.59
2022-12-18T12:43:04.122Z,62409.59
2022-12-18T12:45:48.674Z,62409.59
2022-12-18T12:48:47.689Z,62409.59
2022-12-18T12:51:20.981Z,62409.59
2022-12-18T12:53:50.149Z,62409.59
2022-12-18T12:56:20.871Z,62409.59
2022-12-18T12:59:16.385Z,62409.59
2022-12-18T13:02:06.346Z,62409.59
2022-12-18T13:05:01.080Z,62409.59
2022-12-18T13:08:02.630Z,62409.59
2022-12-18T13:10:32.532Z,62409.59
2022-12-18T13:13:04.288Z,62409.59
2022-12-18T13:15:44.331Z,62409.59
2022-12-18T13:18:25.139Z,62409.59
2022-12-18T13:20:59.853Z,62409.59
2022-12-18T13:23:33.645Z,62409.59
2022-12-18T13:26:24.687Z,62409.59
2022-12-18T13:28:58.431Z,62409.59
2022-12-18T13:31:40.897Z,62409.59
2022-12-18T13:34:27.706Z,62409.59
2022-12-18T13:37:17.857Z,62409.59
2022-12-18T13:39:45.776Z,62409.59
2022-12-18T13:42:33.203Z,62409.59
2022-12-18T13:45:01.763Z,62409.59
2022-12-18T13:47:34.736Z,62409.59
2022-12-18T13:50:11.053Z,62409.59
2022-12-18T13:52:40.920Z,62409.59
2022-12-18T13:55:17.721Z,62409.59
2022-12-18T13:57:47.551Z,62409.59
2022-12-18T14:00:18.676Z,62409.59
2022-12-18T14:02:47.709Z,62409.59
2022-12-18T14:05:35.658Z,62409.59
2022-12-18T14:08:07.456Z,62409.59
2022-12-18T14:10:47.794Z,62409.59
2022-12-18T14:13:30.262Z,62409.59
2022-12-18T14:16:01.756Z,62409.59
2022-12-18T14:18:44.869Z,62409.59
2022-12-18T14:21:30.633Z,62409.59
2022-12-18T14:24:21.947Z,62409.59
2022-12-18T14:26:51.518Z,62409.59
2022-12-18T14:29:29.705Z,62409.59
2022-12-18T14:32:27.044Z,62409.59
2022-12-18T14:34:55.560Z,62409.59
2022-12-18T14:37:29.303Z,62409.59
2022-12-18T14:40:07.293Z,62409.59
2022-12-18T14:42:36.588Z,62409.59
2022-12-18T14:45:43.539Z,62409.59
2022-12-18T14:48:37.351Z,62409.59
2022-12-18T14:51:17.977Z,62409.59
2022-12-18T14:53:53.683Z,62409.59
2022-12-18T14:56:21.528Z,62409.59
2022-12-18T14:58:57.947Z,62409.59
2022-12-18T15:01:36.385Z,62409.59
2022-12-18T15:04:06.857Z,62409.59
2022-12-18T15:06:37.441Z,62409.59
2022-12-18T15:09:22.857Z,62409.59
2022-12-18T15:11:51.547Z,62409.59
2022-12-18T15:14:31.748Z,62409.59
2022-12-18T15:17:01.691Z,62409.59
2022-12-18T15:19:41.836Z,62409.59
2022-12-18T15:22:24.043Z,62409.59
2022-12-18T15:24:52.315Z,62409.59
2022-12-18T15:27:36.938Z,62409.59
2022-12-18T15:30:11.159Z,62409.59
2022-12-18T15:32:39.448Z,62409.59
2022-12-18T15:35:10.124Z,62409.59
2022-12-18T15:37:40.191Z,62409.59
2022-12-18T15:40:21.715Z,62409.59
2022-12-18T15:43:08.600Z,62409.59
2022-12-18T15:45:36.652Z,62409.59
2022-12-18T15:48:22.080Z,62409.59
2022-12-18T15:50:56.671Z,62409.59
2022-12-18T15:53:32.103Z,62409.59
2022-12-18T15:56:18.516Z,62409.59
2022-12-18T15:58:45.947Z,62409.59
2022-12-18T16:01:14.287Z,62409.59
2022-12-18T16:03:42.211Z,62409.59
2022-12-18T16:06:10.489Z,62409.59
2022-12-18T16:08:37.953Z,62409.59
2022-12-18T16:11:10.722Z,62409.59
2022-12-18T16:13:38.232Z,62409.59
2022-12-18T16:16:07.141Z,62409.59
2022-12-18T16:18:34.766Z,62409.59
2022-12-18T16:21:02.737Z,62409.59
2022-12-18T16:23:30.040Z,62409.59
2022-12-18T16:25:57.891Z,62409.59
2022-12-18T16:28:25.451Z,62409.59
2022-12-18T16:30:53.351Z,62409.59
2022-12-18T16:33:20.795Z,62409.59
2022-12-18T16:35:53.304Z,62409.59
2022-12-18T16:38:21.056Z,62409.59
2022-12-18T16:41:08.132Z,62409.59
2022-12-18T16:43:36.383Z,62409.59
2022-12-18T16:46:04.347Z,62409.59
2022-12-18T16:48:31.836Z,62409.59
2022-12-18T16:51:04.170Z,62409.59
2022-12-18T16:53:34.518Z,62409.59
2022-12-18T16:56:03.019Z,62409.59
2022-12-18T16:58:31.811Z,62409.59
2022-12-18T17:01:00.422Z,62409.59
2022-12-18T17:03:27.846Z,62409.59
2022-12-18T17:05:55.503Z,62409.59
2022-12-18T17:08:23.140Z,62409.59
2022-12-18T17:10:51.303Z,62409.59
2022-12-18T17:13:26.002Z,62409.59
2022-12-18T17:16:07.552Z,62409.59
2022-12-18T17:18:36.627Z,62409.59
2022-12-18T17:21:10.172Z,62409.59
2022-12-18T17:23:39.235Z,62409.59
2022-12-18T17:26:11.909Z,62409.59
2022-12-18T17:28:41.561Z,62409.59
2022-12-18T17:31:19.816Z,62409.59
2022-12-18T17:33:50.945Z,62409.59
2022-12-18T17:36:21.732Z,62409.59
2022-12-18T17:38:57.782Z,62409.59
2022-12-18T17:41:27.102Z,62409.59
2022-12-18T17:43:58.533Z,62409.59
2022-12-18T17:46:28.056Z,62409.59
2022-12-18T17:49:00.297Z,62409.59
2022-12-18T17:51:31.186Z,62409.59
2022-12-18T17:53:58.600Z,62409.59
2022-12-18T17:56:27.127Z,62409.59
2022-12-18T17:58:54.759Z,62409.59
2022-12-18T18:01:25.523Z,62409.59
2022-12-18T18:03:56.222Z,62409.59
2022-12-18T18:06:24.530Z,62409.59
2022-12-18T18:08:52.214Z,62409.59
2022-12-18T18:11:40.028Z,62409.59
2022-12-18T18:14:13.304Z,62409.59
2022-12-18T18:16:43.422Z,62409.59
2022-12-18T18:19:16.841Z,62409.59
2022-12-18T18:21:47.751Z,62409.59
2022-12-18T18:24:18.485Z,62409.59
2022-12-18T18:26:47.310Z,62409.59
2022-12-18T18:29:17.076Z,62409.59
2022-12-18T18:31:45.245Z,62409.59
2022-12-18T18:34:24.031Z,62409.59
2022-12-18T18:36:52.054Z,62409.59
2022-12-18T18:39:20.197Z,62409.59
2022-12-18T18:41:48.718Z,62409.59
2022-12-18T18:44:18.355Z,62409.59
2022-12-18T18:46:46.500Z,62409.59
2022-12-18T18:49:15.031Z,62409.59
2022-12-18T18:51:43.151Z,62409.59
2022-12-18T18:54:10.442Z,62409.59
2022-12-18T18:57:11.945Z,62409.59
2022-12-18T18:59:31.298Z,62409.59
2022-12-18T19:02:04.014Z,62409.59
2022-12-18T19:04:34.188Z,62409.59
2022-12-18T19:07:02.555Z,62409.59
2022-12-18T19:09:29.945Z,62409.59
2022-12-18T19:12:16.563Z,62409.59
2022-12-18T19:14:44.820Z,62409.59
2022-12-18T19:17:12.580Z,62409.59
2022-12-18T19:19:40.360Z,62409.59
2022-12-18T19:22:08.176Z,62409.59
2022-12-18T19:24:35.892Z,62409.59
2022-12-18T19:27:03.640Z,62409.59
2022-12-18T19:29:32.068Z,62409.59
2022-12-18T19:32:00.594Z,62409.59
2022-12-18T19:34:28.218Z,62409.59
2022-12-18T19:36:59.951Z,62409.59
2022-12-18T19:39:27.760Z,62409.59
2022-12-18T19:41:55.357Z,62409.59
2022-12-18T19:44:22.802Z,62409.59
2022-12-18T19:46:52.076Z,62409.59
2022-12-18T19:49:22.437Z,62409.59
2022-12-18T19:51:50.558Z,62409.59
2022-12-18T19:54:18.199Z,62409.59
2022-12-18T19:56:46.292Z,62409.59
2022-12-18T19:59:14.227Z,62409.59
2022-12-18T20:01:42.290Z,62409.59
2022-12-18T20:04:09.747Z,62409.59
2022-12-18T20:06:51.384Z,62409.59
2022-12-18T20:09:19.565Z,62409.59
2022-12-18T20:11:48.822Z,62409.59
2022-12-18T20:14:23.061Z,62409.59
2022-12-18T20:16:52.636Z,62409.59
2022-12-18T20:19:21.776Z,62409.59
2022-12-18T20:21:49.955Z,62409.59
2022-12-18T20:24:17.220Z,62409.59
2022-12-18T20:26:44.908Z,62409.59
2022-12-18T20:29:12.186Z,62409.59
2022-12-18T20:31:40.404Z,62409.59
2022-12-18T20:34:08.373Z,62409.59
2022-12-18T20:36:37.745Z,62409.59
2022-12-18T20:39:07.607Z,62409.59
2022-12-18T20:41:39.086Z,62409.59
2022-12-18T20:44:16.702Z,62409.59
2022-12-18T20:46:54.593Z,62409.59
2022-12-18T20:49:23.003Z,62409.59
2022-12-18T20:51:52.599Z,62409.59
2022-12-18T20:54:21.251Z,62409.59
2022-12-18T20:56:49.141Z,62409.59
2022-12-18T20:59:16.823Z,62409.59
2022-12-18T21:01:45.261Z,62409.59
2022-12-18T21:04:18.141Z,62409.59
2022-12-18T21:06:59.070Z,62409.59
2022-12-18T21:09:38.131Z,62409.59
2022-12-18T21:12:35.160Z,62409.59
2022-12-18T21:15:10.620Z,62409.59
2022-12-18T21:17:44.431Z,62409.59
2022-12-18T21:20:17.271Z,62409.59
2022-12-18T21:22:45.675Z,62409.59
2022-12-18T21:25:12.831Z,62409.59
2022-12-18T21:27:40.512Z,62409.59
2022-12-18T21:30:08.408Z,62409.59
2022-12-18T21:32:36.227Z,62409.59
2022-12-18T21:35:04.062Z,62409.59
2022-12-18T21:37:31.797Z,62409.59
2022-12-18T21:39:59.063Z,62409.59
2022-12-18T21:42:45.302Z,62409.59
2022-12-18T21:45:12.563Z,62409.59
2022-12-18T21:47:40.236Z,62409.59
2022-12-18T21:50:07.938Z,62409.59
2022-12-18T21:52:35.545Z,62409.59
2022-12-18T21:55:09.152Z,62409.59
2022-12-18T21:57:40.249Z,62409.59
2022-12-18T22:00:16.866Z,62409.59
2022-12-18T22:02:47.258Z,62409.59
2022-12-18T22:05:14.661Z,62409.59
2022-12-18T22:07:42.312Z,62409.59
2022-12-18T22:10:10.207Z,62409.59
2022-12-18T22:12:43.394Z,62409.59
2022-12-18T22:15:21.553Z,62409.59
2022-12-18T22:17:57.554Z,62409.59
2022-12-18T22:20:30.049Z,62409.59
2022-12-18T22:22:58.418Z,62409.59
2022-12-18T22:25:25.782Z,62409.59
2022-12-18T22:28:13.062Z,62409.59
2022-12-18T22:30:40.685Z,62409.59
2022-12-18T22:33:08.352Z,62409.59
2022-12-18T22:35:35.616Z,62409.59
2022-12-18T22:38:03.603Z,62409.59
2022-12-18T22:40:31.140Z,62409.59
2022-12-18T22:42:58.732Z,62409.59
2022-12-18T22:45:26.982Z,62409.59
2022-12-18T22:47:54.837Z,62409.59
2022-12-18T22:50:22.243Z,62409.59
2022-12-18T22:52:49.778Z,62409.59
2022-12-18T22:55:17.130Z,62409.59
2022-12-18T22:57:48.987Z,62409.59
2022-12-18T23:00:23.804Z,62409.59
2022-12-18T23:03:00.201Z,62409.59
2022-12-18T23:05:29.880Z,62409.59
2022-12-18T23:07:57.762Z,62409.59
2022-12-18T23:10:25.316Z,62409.59
2022-12-18T23:12:52.824Z,62409.59
2022-12-18T23:15:21.537Z,62409.59
2022-12-18T23:18:00.027Z,62409.59
2022-12-18T23:20:27.880Z,62409.59
2022-12-18T23:22:55.553Z,62409.59
2022-12-18T23:25:23.354Z,62409.59
2022-12-18T23:27:51.147Z,62409.59
2022-12-18T23:30:18.465Z,62409.59
2022-12-18T23:32:45.954Z,62409.59
2022-12-18T23:35:14.328Z,62409.59
2022-12-18T23:38:00.474Z,62409.59
2022-12-18T23:40:29.693Z,62409.59
2022-12-18T23:42:57.393Z,62409.59
2022-12-18T23:45:24.579Z,62409.59
2022-12-18T23:47:52.093Z,62409.59
2022-12-18T23:50:19.464Z,62409.59
2022-12-18T23:52:51.456Z,62409.59
2022-12-18T23:55:19.122Z,62409.59
2022-12-18T23:57:46.659Z,62409.59
